Time;durP1;ratioP1;P1;durP2;ratioP2;P2;SDS_P1;SDS_P2;PMS_P1;PMS_P2;Temp;Humidity;BMP_temperature;BMP_pressure;BME280_temperature;BME280_humidity;BME280_pressure;Samples;Min_cycle;Max_cycle;Signal;HPM_P1;HPM_P2
2022/03/05 00:01:56;;;;;;;4.68;1.92;;;;;;;-3.69;100.00;102199.22;5029974;28;20147;-78
2022/03/05 00:04:22;;;;;;;6.50;2.17;;;;;;;-3.69;100.00;102201.81;5029212;28;20029;-76
2022/03/05 00:06:49;;;;;;;5.25;2.33;;;;;;;-3.78;100.00;102197.66;5012757;28;20409;-75
2022/03/05 00:09:15;;;;;;;4.70;1.80;;;;;;;-3.80;100.00;102203.81;5047078;28;20587;-78
2022/03/05 00:11:40;;;;;;;11.10;1.55;;;;;;;-3.86;100.00;102208.28;5012861;28;20063;-77
2022/03/05 00:14:05;;;;;;;8.52;1.83;;;;;;;-3.87;100.00;102209.16;5029406;28;20060;-76
2022/03/05 00:16:31;;;;;;;5.35;2.30;;;;;;;-3.82;100.00;102207.34;5029112;28;20067;-76
2022/03/05 00:18:56;;;;;;;10.27;2.28;;;;;;;-3.76;100.00;102210.69;5046501;28;20040;-77
2022/03/05 00:21:22;;;;;;;7.88;2.30;;;;;;;-3.84;100.00;102209.13;5029553;28;20072;-75
2022/03/05 00:23:47;;;;;;;6.45;1.77;;;;;;;-3.91;100.00;102210.16;5028992;28;20029;-77
2022/03/05 00:26:13;;;;;;;5.32;2.33;;;;;;;-4.01;100.00;102195.56;5012697;28;20043;-76
2022/03/05 00:28:38;;;;;;;4.40;1.58;;;;;;;-4.03;100.00;102192.13;5029080;28;20025;-77
2022/03/05 00:31:04;;;;;;;11.52;3.10;;;;;;;-3.96;100.00;102200.69;5012352;28;20065;-78
2022/03/05 00:33:29;;;;;;;6.75;3.53;;;;;;;-3.95;100.00;102200.66;5028141;28;20155;-78
2022/03/05 00:35:55;;;;;;;11.18;3.33;;;;;;;-3.87;100.00;102203.94;5045807;28;20087;-77
2022/03/05 00:38:21;;;;;;;17.15;3.47;;;;;;;-4.01;100.00;102190.34;5046561;28;20115;-75
2022/03/05 00:40:46;;;;;;;14.40;5.78;;;;;;;-4.06;100.00;102192.19;5028427;28;20490;-78
2022/03/05 00:43:14;;;;;;;4.28;2.45;;;;;;;-3.98;100.00;102211.19;5029017;28;20152;-74
2022/03/05 00:45:39;;;;;;;3.72;2.05;;;;;;;-4.07;100.00;102201.78;5035434;28;20527;-77
2022/03/05 00:48:04;;;;;;;12.95;2.97;;;;;;;-3.99;100.00;102209.44;5035208;28;20079;-78
2022/03/05 00:50:30;;;;;;;8.98;2.65;;;;;;;-4.00;100.00;102212.06;5034985;28;20052;-77
2022/03/05 00:52:56;;;;;;;10.48;2.58;;;;;;;-4.03;100.00;102223.44;5017570;28;20146;-77
2022/03/05 00:55:22;;;;;;;8.60;3.28;;;;;;;-4.11;100.00;102214.94;5034385;28;20085;-76
2022/03/05 00:57:47;;;;;;;5.00;2.30;;;;;;;-4.14;100.00;102215.00;5018527;28;20050;-75
2022/03/05 01:00:13;;;;;;;4.50;2.30;;;;;;;-4.15;100.00;102208.91;5034393;28;20562;-75
2022/03/05 01:02:40;;;;;;;10.27;3.05;;;;;;;-4.19;100.00;102224.66;5034625;28;20024;-77
2022/03/05 01:05:06;;;;;;;10.43;2.58;;;;;;;-4.17;100.00;102223.72;5052361;28;20020;-75
2022/03/05 01:07:32;;;;;;;7.15;2.47;;;;;;;-4.18;100.00;102223.78;5034247;28;20041;-75
2022/03/05 01:09:57;;;;;;;8.05;2.40;;;;;;;-4.18;100.00;102232.44;5017341;28;20040;-75
2022/03/05 01:12:23;;;;;;;9.75;2.40;;;;;;;-4.17;100.00;102228.94;5052045;28;20607;-76
2022/03/05 01:14:50;;;;;;;11.38;2.33;;;;;;;-4.16;100.00;102235.03;5017543;28;20096;-77
2022/03/05 01:17:16;;;;;;;5.72;2.17;;;;;;;-4.20;100.00;102235.97;5033958;28;20037;-77
2022/03/05 01:19:41;;;;;;;10.45;4.13;;;;;;;-4.25;100.00;102223.88;5033959;28;20390;-76
2022/03/05 01:22:07;;;;;;;7.00;3.35;;;;;;;-4.31;100.00;102224.03;5052640;28;20036;-75
2022/03/05 01:24:33;;;;;;;7.57;2.47;;;;;;;-4.24;100.00;102229.94;5018145;28;20032;-77
2022/03/05 01:26:58;;;;;;;3.90;2.25;;;;;;;-4.26;100.00;102227.41;5034699;28;20040;-77
2022/03/05 01:29:23;;;;;;;5.63;2.53;;;;;;;-4.18;100.00;102226.38;5017661;28;20017;-77
2022/03/05 01:31:49;;;;;;;8.10;2.72;;;;;;;-4.19;100.00;102229.84;5034435;28;20178;-77
2022/03/05 01:34:15;;;;;;;7.90;2.50;;;;;;;-4.25;100.00;102228.25;5017988;28;20469;-75
2022/03/05 01:36:40;;;;;;;;;;;;;;;-4.30;100.00;102230.94;5036635;28;20052;-77
2022/03/05 01:39:05;;;;;;;6.47;2.37;;;;;;;-4.34;100.00;102231.91;5035935;28;19908;-77
2022/03/05 01:41:31;;;;;;;5.28;2.65;;;;;;;-4.32;100.00;102226.66;5016056;28;20064;-77
2022/03/05 01:43:57;;;;;;;6.38;2.40;;;;;;;-4.31;100.00;102221.44;5016350;28;20132;-76
2022/03/05 01:46:34;;;;;;;5.95;1.80;;;;;;;-4.31;100.00;102223.16;5033145;28;20117;-75
2022/03/05 01:49:03;;;;;;;8.95;2.47;;;;;;;-4.30;100.00;102219.66;5031537;28;20075;-77
2022/03/05 01:51:28;;;;;;;6.57;1.75;;;;;;;-4.35;100.00;102209.31;5016535;28;20065;-77
2022/03/05 01:53:54;;;;;;;5.10;1.60;;;;;;;-4.32;100.00;102209.25;5032422;28;20061;-76
2022/03/05 01:56:21;;;;;;;7.90;1.80;;;;;;;-4.40;100.00;102200.75;5030268;28;20500;-77
2022/03/05 01:58:48;;;;;;;7.38;2.28;;;;;;;-4.45;100.00;102199.94;4996303;28;20406;-77
2022/03/05 02:01:14;;;;;;;4.88;2.25;;;;;;;-4.48;100.00;102194.81;5029017;28;20033;-77
2022/03/05 02:03:40;;;;;;;5.10;1.50;;;;;;;-4.40;100.00;102205.06;5030040;28;20498;-77
2022/03/05 02:06:06;;;;;;;7.38;2.28;;;;;;;-4.45;100.00;102205.16;5012068;28;20041;-76
2022/03/05 02:08:31;;;;;;;4.78;1.77;;;;;;;-4.51;100.00;102200.09;5030244;28;20040;-76
2022/03/05 02:10:56;;;;;;;7.93;2.70;;;;;;;-4.55;100.00;102188.84;5013137;28;20149;-77
2022/03/05 02:13:22;;;;;;;;;;;;;;;-4.50;100.00;102199.19;5029614;28;20073;-75
2022/03/05 02:15:53;;;;;;;3.87;1.87;;;;;;;-4.50;100.00;102193.97;5029325;28;20317;-74
2022/03/05 02:18:18;;;;;;;3.42;1.48;;;;;;;-4.51;100.00;102184.47;5028828;28;20120;-77
2022/03/05 02:20:44;;;;;;;7.22;2.28;;;;;;;-4.49;100.00;102187.91;5012786;28;20409;-76
2022/03/05 02:23:10;;;;;;;4.13;2.13;;;;;;;-4.47;100.00;102188.72;5029291;28;20037;-75
2022/03/05 02:25:35;;;;;;;4.63;1.42;;;;;;;-4.42;100.00;102194.69;5012379;28;20021;-76
2022/03/05 02:28:01;;;;;;;6.47;1.67;;;;;;;-4.49;100.00;102177.47;5027803;28;20041;-77
2022/03/05 02:30:27;;;;;;;;;;;;;;;-4.40;100.00;102195.53;5036721;28;20082;-75
2022/03/05 02:32:52;;;;;;;5.07;1.73;;;;;;;-4.37;100.00;102192.84;5050015;28;19921;-77
2022/03/05 02:35:18;;;;;;;6.47;1.73;;;;;;;-4.42;100.00;102183.41;5031245;28;20485;-77
2022/03/05 02:37:43;;;;;;;6.13;2.53;;;;;;;-4.47;100.00;102186.13;5048731;28;20474;-77
2022/03/05 02:40:09;;;;;;;6.00;1.60;;;;;;;-4.43;100.00;102190.34;5031958;28;20049;-76
2022/03/05 02:42:35;;;;;;;3.72;2.00;;;;;;;-4.48;100.00;102190.44;5050585;28;20062;-76
2022/03/05 02:45:00;;;;;;;3.65;1.42;;;;;;;-4.47;100.00;102191.34;5031667;28;20065;-77
2022/03/05 02:47:25;;;;;;;5.50;2.15;;;;;;;-4.44;100.00;102200.84;5049751;28;20032;-75
2022/03/05 02:49:51;;;;;;;2.53;1.52;;;;;;;-4.53;100.00;102188.84;5015169;28;20036;-76
2022/03/05 02:52:16;;;;;;;4.15;1.35;;;;;;;-4.55;100.00;102191.47;5031964;28;20036;-76
2022/03/05 02:54:41;;;;;;;;;;;;;;;-4.49;100.00;102199.16;5031825;28;20493;-75
2022/03/05 02:57:07;;;;;;;2.67;1.33;;;;;;;-4.56;100.00;102183.69;5031110;28;19912;-75
2022/03/05 02:59:32;;;;;;;4.07;1.63;;;;;;;-4.46;100.00;102193.03;5015034;28;20029;-76
2022/03/05 03:01:58;;;;;;;6.93;2.17;;;;;;;-4.47;100.00;102183.50;5031530;28;20062;-76
2022/03/05 03:04:23;;;;;;;6.88;1.67;;;;;;;-4.46;100.00;102199.09;5030529;28;20111;-77
2022/03/05 03:06:50;;;;;;;3.80;2.22;;;;;;;-4.55;100.00;102193.22;5013814;28;20084;-76
2022/03/05 03:09:16;;;;;;;7.97;1.73;;;;;;;-4.51;100.00;102192.28;5031110;28;20116;-77
2022/03/05 03:11:41;;;;;;;4.35;1.77;;;;;;;-4.52;100.00;102187.94;5031253;28;20104;-76
2022/03/05 03:14:07;;;;;;;10.98;3.05;;;;;;;-4.53;100.00;102183.63;5031078;28;20040;-76
2022/03/05 03:16:32;;;;;;;8.00;1.63;;;;;;;-4.48;100.00;102197.41;5048115;28;20036;-76
2022/03/05 03:18:58;;;;;;;3.72;1.80;;;;;;;-4.48;100.00;102195.66;5030817;28;20548;-75
2022/03/05 03:21:23;;;;;;;5.55;1.90;;;;;;;-4.40;100.00;102198.13;5030713;28;20095;-76
2022/03/05 03:23:48;;;;;;;4.15;1.40;;;;;;;-4.35;100.00;102200.66;5048577;28;20033;-76
2022/03/05 03:26:14;;;;;;;6.63;2.60;;;;;;;-4.37;100.00;102195.47;5030612;28;20025;-75
2022/03/05 03:28:39;;;;;;;4.70;1.88;;;;;;;-4.30;100.00;102210.09;5030655;28;20036;-77
2022/03/05 03:31:05;;;;;;;3.55;1.70;;;;;;;-4.26;100.00;102210.91;5014348;28;20037;-76
2022/03/05 03:33:30;;;;;;;6.00;1.83;;;;;;;-4.08;100.00;102213.09;5014395;28;20035;-76
2022/03/05 03:35:55;;;;;;;6.28;2.45;;;;;;;-3.91;100.00;102223.19;5029216;28;20074;-78
2022/03/05 03:38:21;;;;;;;8.82;2.13;;;;;;;-3.80;100.00;102220.31;5029114;28;20144;-77
2022/03/05 03:40:46;;;;;;;2.10;1.30;;;;;;;-3.86;100.00;102208.28;5029033;28;20025;-76
2022/03/05 03:43:12;;;;;;;6.30;2.47;;;;;;;-3.80;100.00;102211.66;5028662;28;20053;-76
2022/03/05 03:45:37;;;;;;;9.23;1.80;;;;;;;-3.73;100.00;102216.69;5029031;28;20040;-75
2022/03/05 03:48:03;;;;;;;6.18;1.85;;;;;;;-3.65;100.00;102213.91;5028801;28;20362;-77
2022/03/05 03:50:29;;;;;;;14.77;3.28;;;;;;;-3.57;100.00;102219.81;5046774;28;20036;-76
2022/03/05 03:52:55;;;;;;;6.25;2.08;;;;;;;-3.52;100.00;102217.94;5028981;28;20067;-76
2022/03/05 03:55:22;;;;;;;5.03;1.80;;;;;;;-3.50;100.00;102217.91;5028758;28;20037;-76
2022/03/05 03:57:48;;;;;;;4.53;1.45;;;;;;;-3.47;100.00;102223.06;5010865;28;20413;-77
2022/03/05 04:00:15;;;;;;;4.38;1.85;;;;;;;-3.43;100.00;102220.34;5012234;28;20048;-76
2022/03/05 04:02:41;;;;;;;8.32;1.70;;;;;;;-3.45;100.00;102211.69;5028582;28;20025;-78
2022/03/05 04:05:07;;;;;;;3.78;1.90;;;;;;;-3.38;100.00;102225.44;5011851;28;20059;-76
2022/03/05 04:10:17;;;;;;;5.32;2.10;;;;;;;-3.39;100.00;102218.53;5039703;28;20632;-74
2022/03/05 04:12:42;;;;;;;6.40;2.13;;;;;;;-3.38;100.00;102219.38;5027799;28;20115;-74
2022/03/05 04:15:08;;;;;;;5.28;1.92;;;;;;;-3.40;100.00;102216.78;5027588;28;20095;-73
2022/03/05 04:17:34;;;;;;;5.22;2.40;;;;;;;-3.41;100.00;102226.38;5040813;28;20475;-72
2022/03/05 04:19:59;;;;;;;4.63;1.88;;;;;;;-3.38;100.00;102232.44;5024916;28;20068;-73
2022/03/05 04:22:25;;;;;;;10.02;1.80;;;;;;;-3.40;100.00;102225.47;5025699;28;20183;-72
2022/03/05 04:24:50;;;;;;;5.65;2.05;;;;;;;-3.34;100.00;102221.03;5024064;28;20125;-72
2022/03/05 04:27:16;;;;;;;10.85;2.22;;;;;;;-3.37;100.00;102221.97;5025669;28;20465;-72
2022/03/05 04:29:41;;;;;;;5.50;1.90;;;;;;;-3.34;100.00;102240.16;5007351;28;20489;-72
2022/03/05 04:32:07;;;;;;;3.97;2.08;;;;;;;-3.40;100.00;102229.84;5025976;28;20390;-73
2022/03/05 04:34:33;;;;;;;;;;;;;;;-3.40;100.00;102230.69;5025711;28;20021;-73
2022/03/05 04:36:58;;;;;;;7.97;2.53;;;;;;;-3.42;100.00;102231.63;5023874;28;19920;-73
2022/03/05 04:39:24;;;;;;;5.53;2.28;;;;;;;-3.44;100.00;102223.84;5023677;28;20057;-72
2022/03/05 04:41:49;;;;;;;6.47;2.28;;;;;;;-3.42;100.00;102232.50;5025353;28;20064;-72
2022/03/05 04:44:15;;;;;;;7.68;2.15;;;;;;;-3.48;100.00;102227.44;5007388;28;20029;-72
2022/03/05 04:46:41;;;;;;;8.63;1.88;;;;;;;-3.59;100.00;102226.81;5024282;28;20481;-72
2022/03/05 04:49:06;;;;;;;4.35;2.13;;;;;;;-3.58;100.00;102225.06;5023729;28;20493;-72
2022/03/05 04:51:33;;;;;;;4.85;2.25;;;;;;;-3.66;100.00;102217.41;5007712;28;20112;-72
2022/03/05 04:53:58;;;;;;;7.60;1.98;;;;;;;-3.71;100.00;102222.72;5007543;28;20109;-72
2022/03/05 04:56:24;;;;;;;5.50;2.40;;;;;;;-3.76;100.00;102219.38;5007680;28;20128;-73
2022/03/05 04:58:49;;;;;;;4.88;2.40;;;;;;;-3.77;100.00;102219.41;5024800;28;20479;-73
2022/03/05 05:01:15;;;;;;;5.57;1.48;;;;;;;-3.76;100.00;102223.75;5024224;28;20087;-72
2022/03/05 05:03:40;;;;;;;8.52;2.20;;;;;;;-3.77;100.00;102227.22;5025124;28;20032;-73
2022/03/05 05:06:06;;;;;;;4.32;2.42;;;;;;;-3.78;100.00;102235.97;5007398;28;20064;-73
2022/03/05 05:08:32;;;;;;;8.52;2.20;;;;;;;-3.86;100.00;102229.16;5007377;28;20032;-72
2022/03/05 05:10:57;;;;;;;;;;;;;;;-3.79;100.00;102237.72;5007843;28;20051;-73
2022/03/05 05:13:23;;;;;;;5.00;3.35;;;;;;;-3.87;100.00;102227.44;5024141;28;20343;-72
2022/03/05 05:15:48;;;;;;;7.97;2.88;;;;;;;-3.95;100.00;102236.34;5024748;28;20061;-73
2022/03/05 05:18:14;;;;;;;8.38;3.35;;;;;;;-4.00;100.00;102239.03;5007108;28;20030;-72
2022/03/05 05:20:39;;;;;;;6.25;2.35;;;;;;;-4.00;100.00;102241.66;5024960;28;20033;-72
2022/03/05 05:23:05;;;;;;;8.43;2.15;;;;;;;-4.05;100.00;102240.88;4994097;28;20036;-73
2022/03/05 05:25:30;;;;;;;6.57;2.55;;;;;;;-4.08;100.00;102231.34;5033227;28;20025;-72
2022/03/05 05:27:56;;;;;;;4.30;2.20;;;;;;;-4.11;100.00;102238.41;5023160;28;20534;-72
2022/03/05 05:30:21;;;;;;;9.20;2.80;;;;;;;-4.14;100.00;102241.09;4988758;28;20028;-73
2022/03/05 05:32:47;;;;;;;9.55;3.17;;;;;;;-4.05;100.00;102253.91;5009110;28;20043;-74
2022/03/05 05:35:12;;;;;;;7.75;2.55;;;;;;;-4.11;100.00;102256.66;4991091;28;20040;-73
2022/03/05 05:37:38;;;;;;;5.50;3.42;;;;;;;-4.18;100.00;102255.06;5008636;28;20116;-72
2022/03/05 05:40:03;;;;;;;3.85;2.10;;;;;;;-4.27;100.00;102256.09;5023663;28;20080;-73
2022/03/05 05:42:29;;;;;;;;;;;;;;;-4.19;100.00;102259.44;5004962;28;20075;-72
2022/03/05 05:44:54;;;;;;;9.95;2.58;;;;;;;-4.23;100.00;102268.19;5010745;28;19913;-72
2022/03/05 05:47:20;;;;;;;9.32;2.38;;;;;;;-4.22;100.00;102261.22;5028191;28;20041;-72
2022/03/05 05:49:46;;;;;;;7.20;2.42;;;;;;;-4.23;100.00;102273.41;5010933;28;20289;-72
2022/03/05 05:52:12;;;;;;;7.07;2.45;;;;;;;-4.19;100.00;102275.09;5028653;28;20383;-74
2022/03/05 05:54:37;;;;;;;5.22;3.10;;;;;;;-4.26;100.00;102274.34;5028286;28;20033;-73
2022/03/05 05:57:03;;;;;;;9.07;3.58;;;;;;;-4.30;100.00;102275.28;5028281;28;20037;-72
2022/03/05 05:59:29;;;;;;;11.77;2.60;;;;;;;-4.27;100.00;102287.41;5027988;28;20060;-73
2022/03/05 06:01:54;;;;;;;7.10;3.08;;;;;;;-4.31;100.00;102289.22;5010404;28;20490;-72
2022/03/05 06:04:20;;;;;;;7.82;3.45;;;;;;;-4.28;100.00;102291.75;5010614;28;20398;-73
2022/03/05 06:06:45;;;;;;;10.57;3.58;;;;;;;-4.25;100.00;102291.69;5028169;28;20041;-73
2022/03/05 06:09:11;;;;;;;9.23;4.93;;;;;;;-4.20;100.00;102289.00;5028013;28;20032;-72
2022/03/05 06:11:36;;;;;;;14.55;3.70;;;;;;;-4.16;100.00;102292.41;5010787;28;20038;-72
2022/03/05 06:14:02;;;;;;;11.43;3.13;;;;;;;-4.16;100.00;102298.50;5010767;28;20421;-73
2022/03/05 06:16:27;;;;;;;7.22;3.03;;;;;;;-4.14;100.00;102288.03;5010623;28;20064;-72
2022/03/05 06:18:53;;;;;;;11.48;3.00;;;;;;;-4.12;100.00;102294.06;5028009;28;20029;-73
2022/03/05 06:21:18;;;;;;;9.10;3.55;;;;;;;-4.16;100.00;102298.50;5028255;28;20494;-73
2022/03/05 06:23:43;;;;;;;15.70;3.42;;;;;;;-3.99;100.00;102305.13;4993858;28;20083;-73
2022/03/05 06:26:09;;;;;;;5.85;3.08;;;;;;;-3.91;100.00;102304.09;5010459;28;20196;-72
2022/03/05 06:28:35;;;;;;;4.70;2.85;;;;;;;-3.97;100.00;102305.94;5010273;28;20021;-72
2022/03/05 06:31:01;;;;;;;6.68;3.08;;;;;;;-3.97;100.00;102306.81;5010457;28;20081;-73
2022/03/05 06:33:27;;;;;;;12.43;3.58;;;;;;;-3.88;100.00;102306.63;5028027;28;20559;-74
2022/03/05 06:35:52;;;;;;;20.33;6.30;;;;;;;-3.80;100.00;102309.06;5027357;28;20033;-74
2022/03/05 06:38:18;;;;;;;8.80;4.47;;;;;;;-3.76;100.00;102304.66;5009216;28;20068;-72
2022/03/05 06:40:44;;;;;;;15.65;5.40;;;;;;;-3.72;100.00;102306.28;5008599;28;20084;-73
2022/03/05 06:43:11;;;;;;;7.60;3.13;;;;;;;-3.63;100.00;102311.31;5026299;28;20438;-72
2022/03/05 06:45:36;;;;;;;;;;;;;;;-3.49;100.00;102311.91;5027934;28;20040;-72
2022/03/05 06:48:02;;;;;;;10.13;4.68;;;;;;;-3.35;100.00;102316.78;5027432;28;19912;-74
2022/03/05 06:50:27;;;;;;;8.48;3.40;;;;;;;-3.24;100.00;102311.31;5025854;28;20029;-72
2022/03/05 06:52:53;;;;;;;6.38;2.55;;;;;;;-3.12;100.00;102310.19;5009515;28;20029;-73
2022/03/05 06:55:18;;;;;;;9.25;3.50;;;;;;;-3.02;100.00;102315.16;5009680;28;20048;-72
2022/03/05 06:57:44;;;;;;;11.70;3.20;;;;;;;-2.74;100.00;102318.84;5026220;28;20037;-73
2022/03/05 07:00:12;;;;;;;13.23;3.78;;;;;;;-2.56;100.00;102319.22;5027353;28;20128;-73
2022/03/05 07:02:38;;;;;;;11.07;3.50;;;;;;;-2.03;100.00;102320.47;5009518;28;20082;-74
2022/03/05 07:05:04;;;;;;;12.05;3.83;;;;;;;-1.47;100.00;102333.66;5009709;28;20037;-74
2022/03/05 07:07:29;;;;;;;8.77;3.97;;;;;;;-0.94;100.00;102335.50;5027014;28;20037;-73
2022/03/05 07:09:55;;;;;;;10.73;4.63;;;;;;;-0.69;100.00;102328.56;5027067;28;20029;-73
2022/03/05 07:12:20;;;;;;;5.53;3.63;;;;;;;-0.32;100.00;102336.94;5027041;28;20485;-73
2022/03/05 07:14:48;;;;;;;12.60;3.13;;;;;;;-0.05;100.00;102341.22;5026772;28;20287;-73
2022/03/05 07:17:17;;;;;;;9.55;3.38;;;;;;;0.22;100.00;102317.50;5027137;28;20044;-73
2022/03/05 07:19:43;;;;;;;8.68;3.00;;;;;;;0.54;100.00;102318.91;5026945;28;20033;-73
2022/03/05 07:22:08;;;;;;;5.87;3.67;;;;;;;0.32;100.00;102303.06;5025837;28;20029;-72
2022/03/05 07:24:34;;;;;;;8.88;2.90;;;;;;;0.75;100.00;102290.91;5009243;28;20631;-73
2022/03/05 07:26:59;;;;;;;8.68;2.95;;;;;;;0.91;100.00;102280.59;5027082;28;20550;-73
2022/03/05 07:29:25;;;;;;;6.38;2.45;;;;;;;0.94;100.00;102263.88;5008764;28;20116;-73
2022/03/05 07:31:50;;;;;;;6.70;3.17;;;;;;;1.09;100.00;102263.22;5025604;28;20056;-73
2022/03/05 07:34:15;;;;;;;8.73;2.90;;;;;;;1.30;100.00;102250.94;5009010;28;20693;-72
2022/03/05 07:36:41;;;;;;;10.23;2.70;;;;;;;1.69;100.00;102242.22;5008908;28;20068;-73
2022/03/05 07:39:09;;;;;;;6.30;3.20;;;;;;;1.97;100.00;102233.94;5026252;28;20073;-73
2022/03/05 07:41:38;;;;;;;7.68;2.60;;;;;;;1.60;100.00;102208.41;5026738;28;20040;-73
2022/03/05 07:44:05;;;;;;;5.50;2.47;;;;;;;1.51;100.00;102193.03;5008903;28;20025;-73
2022/03/05 07:46:32;;;;;;;4.90;2.70;;;;;;;1.83;100.00;102188.94;5008691;28;20029;-73
2022/03/05 07:48:58;;;;;;;7.50;3.97;;;;;;;2.26;100.00;102174.59;5026407;28;20433;-73
2022/03/05 07:51:23;;;;;;;8.23;2.97;;;;;;;2.88;100.00;102176.81;5008637;28;20088;-72
2022/03/05 07:53:49;;;;;;;6.47;3.53;;;;;;;1.98;100.00;102117.09;5007930;28;20033;-73
2022/03/05 07:56:14;;;;;;;8.93;3.00;;;;;;;2.47;100.00;102141.06;5026373;28;20115;-73
2022/03/05 07:58:39;;;;;;;7.07;3.20;;;;;;;2.23;98.48;102100.97;5007975;28;20040;-73
2022/03/05 08:01:05;;;;;;;7.73;2.93;;;;;;;2.94;96.44;102113.19;5025983;28;20276;-73
2022/03/05 08:03:30;;;;;;;8.27;3.37;;;;;;;3.14;94.35;102093.69;5026827;28;20029;-73
2022/03/05 08:05:56;;;;;;;10.13;3.17;;;;;;;3.71;91.84;102072.13;5008263;28;20022;-73
2022/03/05 08:08:21;;;;;;;7.78;3.25;;;;;;;3.95;88.86;102044.31;5026326;28;21024;-73
2022/03/05 08:10:47;;;;;;;6.70;3.08;;;;;;;3.93;86.08;101989.84;5025868;28;20037;-73
2022/03/05 08:13:12;;;;;;;7.33;3.23;;;;;;;4.75;84.26;101986.72;5024878;28;20482;-72
2022/03/05 08:15:38;;;;;;;5.93;2.55;;;;;;;4.91;81.20;101933.66;5008313;28;20037;-73
2022/03/05 08:18:04;;;;;;;4.10;2.25;;;;;;;5.11;78.78;101884.75;5008393;28;20026;-73
2022/03/05 08:20:31;;;;;;;7.18;2.65;;;;;;;5.52;77.92;101867.09;5007722;28;20033;-73
2022/03/05 08:22:57;;;;;;;6.95;2.95;;;;;;;6.16;75.96;101864.53;5026142;28;20022;-72
2022/03/05 08:25:23;;;;;;;;;;;;;;;5.09;73.46;101698.72;5008230;28;20045;-73
2022/03/05 08:27:49;;;;;;;6.32;4.30;;;;;;;5.75;73.46;101771.00;5025705;28;19960;-73
2022/03/05 08:30:16;;;;;;;15.82;9.60;;;;;;;5.67;71.84;101704.47;5025503;28;20053;-73
2022/03/05 08:32:41;;;;;;;12.25;7.05;;;;;;;4.28;72.61;101638.81;5007735;28;20099;-72
2022/03/05 08:35:08;;;;;;;12.15;6.00;;;;;;;4.48;75.30;101840.28;5025667;28;20047;-73
2022/03/05 08:37:34;;;;;;;9.05;4.07;;;;;;;4.40;75.26;101822.25;5008232;28;20045;-73
2022/03/05 08:40:00;;;;;;;11.93;6.43;;;;;;;5.70;74.10;101879.13;5008178;28;20029;-73
2022/03/05 08:42:25;;;;;;;10.55;4.38;;;;;;;5.11;72.50;101717.16;5008361;28;20037;-73
2022/03/05 08:44:51;;;;;;;8.93;3.30;;;;;;;4.69;73.47;101750.78;5025973;28;20895;-73
2022/03/05 08:47:17;;;;;;;8.23;3.03;;;;;;;5.52;73.01;101832.66;5006995;28;20063;-73
2022/03/05 08:49:42;;;;;;;8.20;2.75;;;;;;;4.61;73.39;101757.44;5025310;28;20021;-73
2022/03/05 08:52:09;;;;;;;;;;;;;;;4.98;73.19;101797.34;5017814;28;20054;-73
2022/03/05 08:54:35;;;;;;;6.07;2.63;;;;;;;4.61;72.89;101743.34;5025209;28;19917;-73
2022/03/05 08:57:00;;;;;;;5.25;2.38;;;;;;;3.97;73.11;101693.63;5017870;28;20087;-72
2022/03/05 08:59:26;;;;;;;5.10;2.80;;;;;;;4.67;74.25;101851.41;5023963;28;20030;-73
2022/03/05 09:01:51;;;;;;;6.53;2.17;;;;;;;4.77;73.00;101774.94;5040250;28;20080;-73
2022/03/05 09:04:17;;;;;;;10.15;2.85;;;;;;;4.64;72.03;101714.91;4989204;28;20029;-74
2022/03/05 09:06:42;;;;;;;4.50;1.97;;;;;;;4.54;72.56;101739.38;5009747;28;20037;-73
2022/03/05 09:09:08;;;;;;;7.50;2.07;;;;;;;5.29;72.20;101811.19;5028681;28;20053;-73
2022/03/05 09:11:37;;;;;;;5.18;2.35;;;;;;;5.39;71.06;101755.84;5029272;28;20506;-72
2022/03/05 09:14:03;;;;;;;5.07;3.13;;;;;;;5.12;69.94;101661.44;5011609;28;20080;-72
2022/03/05 09:16:28;;;;;;;;;;;;;;;4.59;69.08;101568.88;5029711;28;20042;-73
2022/03/05 09:18:54;;;;;;;;;;;;;;;6.00;69.26;101756.94;5029092;28;19923;-73
2022/03/05 09:21:19;;;;;;;3.47;1.83;;;;;;;5.59;67.70;101638.75;5027018;28;19920;-73
2022/03/05 09:23:44;;;;;;;3.97;1.93;;;;;;;5.19;67.57;101582.44;5009297;28;20040;-73
2022/03/05 09:26:13;;;;;;;2.73;1.60;;;;;;;5.42;67.94;101661.13;5009147;28;20104;-73
2022/03/05 09:28:38;;;;;;;5.10;1.88;;;;;;;5.78;66.95;101645.41;5023153;28;20116;-72
2022/03/05 09:31:04;;;;;;;5.13;1.93;;;;;;;5.69;65.70;101548.88;5011372;28;20105;-73
2022/03/05 09:33:29;;;;;;;8.57;1.80;;;;;;;6.24;63.86;101528.94;5028912;28;20227;-73
2022/03/05 09:35:55;;;;;;;3.88;1.45;;;;;;;5.55;63.81;101458.94;5028388;28;20428;-73
2022/03/05 09:38:20;;;;;;;7.00;4.25;;;;;;;5.39;64.40;101514.84;5010996;28;20076;-73
2022/03/05 09:40:46;;;;;;;7.40;3.23;;;;;;;4.76;65.05;101471.66;5028582;28;20040;-73
2022/03/05 09:43:11;;;;;;;20.60;3.30;;;;;;;5.79;64.80;101597.59;5010657;28;20041;-74
2022/03/05 09:45:37;;;;;;;4.97;2.03;;;;;;;5.13;64.29;101475.19;5028890;28;20132;-73
2022/03/05 09:48:03;;;;;;;10.25;2.80;;;;;;;6.20;62.62;101516.84;5009732;28;20114;-73
2022/03/05 09:50:29;;;;;;;5.30;1.98;;;;;;;6.12;61.50;101414.03;5028190;28;20390;-73
2022/03/05 09:52:59;;;;;;;6.07;1.60;;;;;;;6.03;62.24;101488.13;4994499;28;20445;-73
2022/03/05 09:55:25;;;;;;;6.00;1.52;;;;;;;6.87;60.38;101455.09;5008165;28;20091;-73
2022/03/05 09:57:51;;;;;;;3.08;1.77;;;;;;;6.00;60.23;101361.97;5028818;28;20044;-73
2022/03/05 10:00:17;;;;;;;6.13;3.30;;;;;;;6.43;60.32;101410.81;5043737;28;20033;-73
2022/03/05 10:02:45;;;;;;;10.27;5.13;;;;;;;7.30;58.43;101379.09;5011196;28;20690;-73
2022/03/05 10:05:24;;;;;;;5.57;3.72;;;;;;;7.48;56.15;101218.19;5010743;28;20517;-73
2022/03/05 10:08:15;;;;;;;6.47;2.60;;;;;;;7.49;56.89;101294.28;5011285;28;20033;-73
2022/03/05 10:10:43;;;;;;;4.75;2.10;;;;;;;6.95;58.41;101348.31;5010493;28;20067;-73
2022/03/05 10:13:20;;;;;;;2.05;1.17;;;;;;;5.93;56.91;101071.84;5028258;28;20460;-72
2022/03/05 10:15:47;;;;;;;5.07;1.80;;;;;;;6.68;59.86;101421.22;4989995;28;20233;-73
2022/03/05 10:18:12;;;;;;;4.75;1.65;;;;;;;6.71;58.96;101367.03;4989310;28;20466;-72
2022/03/05 10:20:50;;;;;;;4.35;1.40;;;;;;;5.95;57.86;101194.50;5008005;28;20033;-73
2022/03/05 10:23:17;;;;;;;5.30;1.58;;;;;;;6.33;58.92;101349.69;4991042;28;20029;-73
2022/03/05 10:25:54;;;;;;;2.65;1.50;;;;;;;6.45;58.06;101298.34;5008182;28;20032;-72
2022/03/05 10:28:27;;;;;;;4.45;2.80;;;;;;;5.46;55.21;100936.97;5007883;28;20033;-73
2022/03/05 10:30:58;;;;;;;3.22;1.40;;;;;;;4.75;56.72;100983.22;5007664;28;20462;-73
2022/03/05 10:33:30;;;;;;;9.25;2.78;;;;;;;4.93;56.91;101044.44;5007131;28;20069;-72
2022/03/05 10:35:58;;;;;;;2.22;1.10;;;;;;;4.97;57.03;101075.84;5008505;28;20072;-73
2022/03/05 10:38:25;;;;;;;4.10;1.20;;;;;;;5.77;56.78;101194.09;4990561;28;20022;-73
2022/03/05 10:40:57;;;;;;;3.42;1.85;;;;;;;5.74;56.65;101154.59;5007347;28;20089;-73
2022/03/05 10:43:23;;;;;;;2.47;1.33;;;;;;;6.27;56.24;101212.28;5007011;28;20123;-72
2022/03/05 10:45:49;;;;;;;2.30;1.02;;;;;;;7.51;55.64;101340.13;4990761;28;20034;-72
2022/03/05 10:48:28;;;;;;;4.00;1.92;;;;;;;9.06;52.77;101269.94;4974144;28;20149;-72
2022/03/05 10:50:59;;;;;;;3.83;1.70;;;;;;;9.85;49.09;101087.50;5007920;28;20030;-72
2022/03/05 10:53:47;;;;;;;3.75;1.55;;;;;;;7.05;51.02;100844.81;4990591;28;20084;-72
2022/03/05 10:56:30;;;;;;;2.38;1.20;;;;;;;8.19;51.95;101111.84;5016187;28;20044;-73
2022/03/05 10:59:12;;;;;;;2.30;1.40;;;;;;;8.89;51.50;101172.94;5025870;28;20041;-73
2022/03/05 11:01:43;;;;;;;4.45;1.58;;;;;;;6.88;51.96;100872.88;5027515;28;20061;-73
2022/03/05 11:04:12;;;;;;;5.63;2.53;;;;;;;6.62;53.96;101071.44;5026379;28;20033;-72
2022/03/05 11:06:39;;;;;;;2.35;1.48;;;;;;;8.18;51.94;101149.22;5027391;28;20104;-72
2022/03/05 11:09:10;;;;;;;2.85;1.73;;;;;;;9.47;50.21;101169.34;5027328;28;20438;-73
2022/03/05 11:11:38;;;;;;;4.05;1.67;;;;;;;7.68;49.48;100771.81;5009691;28;20069;-73
2022/03/05 11:14:05;;;;;;;4.45;1.83;;;;;;;7.46;52.02;101022.69;5009585;28;20436;-73
2022/03/05 11:16:32;;;;;;;4.45;2.15;;;;;;;7.30;52.58;101025.84;5027162;28;20132;-73
2022/03/05 11:18:57;;;;;;;5.45;1.92;;;;;;;7.67;51.75;100998.69;5009333;28;20502;-73
2022/03/05 11:21:25;;;;;;;4.40;1.80;;;;;;;8.24;50.64;101005.00;5009553;28;20120;-73
2022/03/05 11:23:51;;;;;;;4.65;1.70;;;;;;;7.97;50.20;100974.66;5025918;28;20264;-72